Alto, Michigan
Current Conditions -  °F | °C
As of 8:22 AM on Sunday 23 Nov 2014 (Local Time) from KGRR Reporting Station
Overcast Overcast  
Wind Chill:   Ceiling: 2900
Heat Index:   Visibility: 8mi
Dew Point:   Wind: 13mph
Humidity: 86%   Direction: 170°S
Pressure: 29.82"   Gusts: NA
Location:  42.86°N, 85.38°W
Report Text: KGRR 231322Z 17011KT 8SM OVC029 08/06 A2982 RMK AO2 T00830061
Loading
Personal Weather Stations






























Interactive Weather Map New forecast layout! Learn more

10-Day Weather Forecast

Advertisements
Track Severe Weather on mobile